Time;durP1;ratioP1;P1;durP2;ratioP2;P2;SDS_P1;SDS_P2;PMS_P1;PMS_P2;Temp;Humidity;BMP_temperature;BMP_pressure;BME280_temperature;BME280_humidity;BME280_pressure;Samples;Min_cycle;Max_cycle;Signal;HPM_P1;HPM_P2
2021/10/09 00:00:58;;;;;;;19.35;12.43;;;8.70;93.80;;;;;;4898568;29;20029;-92
2021/10/09 00:03:24;;;;;;;23.15;13.02;;;8.70;93.80;;;;;;4898331;29;20032;-92
2021/10/09 00:05:50;;;;;;;21.38;12.25;;;8.60;93.80;;;;;;4898053;29;20407;-92
2021/10/09 00:08:19;;;;;;;19.17;11.82;;;8.60;93.80;;;;;;4898130;29;20037;-92
2021/10/09 00:10:46;;;;;;;21.17;12.50;;;8.60;93.80;;;;;;4897948;29;20080;-92
2021/10/09 00:13:13;;;;;;;21.13;12.50;;;8.50;93.80;;;;;;4898072;29;20104;-93
2021/10/09 00:15:39;;;;;;;22.63;13.02;;;8.50;93.70;;;;;;4901189;29;20032;-92
2021/10/09 00:18:07;;;;;;;22.92;13.02;;;8.50;93.80;;;;;;4901573;29;20032;-92
2021/10/09 00:20:33;;;;;;;21.63;12.82;;;8.40;93.80;;;;;;4903083;29;20028;-92
2021/10/09 00:23:00;;;;;;;21.98;12.93;;;8.40;93.80;;;;;;4904584;29;20501;-92
2021/10/09 00:25:25;;;;;;;24.02;13.32;;;8.40;93.80;;;;;;4905507;29;20500;-92
2021/10/09 00:27:52;;;;;;;27.60;13.27;;;8.30;93.70;;;;;;4906727;29;20080;-92
2021/10/09 00:30:18;;;;;;;20.15;12.40;;;8.30;93.70;;;;;;4907559;29;20096;-92
2021/10/09 00:32:44;;;;;;;24.58;13.23;;;8.20;93.70;;;;;;4906277;29;20024;-92
2021/10/09 00:35:10;;;;;;;22.30;13.63;;;8.20;93.80;;;;;;4901773;29;20031;-92
2021/10/09 00:37:36;;;;;;;22.42;13.70;;;8.10;93.80;;;;;;4901351;29;20041;-92
2021/10/09 00:40:03;;;;;;;22.73;12.85;;;8.10;93.90;;;;;;4901555;29;20057;-92
2021/10/09 00:42:29;;;;;;;23.85;13.95;;;8.10;93.90;;;;;;4901053;29;20060;-92
2021/10/09 00:44:54;;;;;;;22.13;13.25;;;8.10;93.90;;;;;;4901369;29;20037;-92
2021/10/09 00:47:25;;;;;;;20.17;12.63;;;8.10;93.80;;;;;;4902351;29;20028;-92
2021/10/09 00:49:51;;;;;;;23.55;13.95;;;8.10;93.90;;;;;;4899427;29;20029;-92
2021/10/09 00:52:18;;;;;;;23.58;13.85;;;8.10;93.80;;;;;;4898848;29;20103;-92
2021/10/09 00:54:48;;;;;;;22.33;13.30;;;8.10;93.80;;;;;;4897691;29;20028;-92
2021/10/09 00:57:16;;;;;;;24.45;14.25;;;8.00;93.80;;;;;;4897758;29;20032;-92
2021/10/09 00:59:43;;;;;;;20.67;12.68;;;8.00;93.80;;;;;;4898051;29;20368;-92
2021/10/09 01:02:10;;;;;;;19.77;12.50;;;7.90;93.90;;;;;;4897666;29;20028;-92
2021/10/09 01:04:37;;;;;;;20.80;12.38;;;7.90;93.90;;;;;;4897503;29;20039;-92
2021/10/09 01:07:05;;;;;;;20.40;12.60;;;7.90;93.90;;;;;;4897875;29;20025;-92
2021/10/09 01:09:31;;;;;;;23.40;12.93;;;7.90;93.90;;;;;;4897625;29;20020;-92
2021/10/09 01:11:57;;;;;;;22.67;13.00;;;7.90;93.90;;;;;;4897772;29;20021;-92
2021/10/09 01:14:24;;;;;;;22.40;13.68;;;7.90;93.90;;;;;;4897599;29;20031;-92
2021/10/09 01:16:50;;;;;;;24.30;14.32;;;7.90;93.90;;;;;;4897539;29;20420;-92
2021/10/09 01:19:15;;;;;;;31.67;14.43;;;7.80;93.90;;;;;;4897510;29;20120;-92
2021/10/09 01:21:47;;;;;;;24.75;13.70;;;7.90;94.00;;;;;;4899119;29;20032;-92
2021/10/09 01:24:13;;;;;;;24.75;15.10;;;7.80;94.00;;;;;;4897600;29;20028;-92
2021/10/09 01:26:39;;;;;;;24.30;15.57;;;7.80;94.00;;;;;;4897388;29;20052;-92
2021/10/09 01:29:07;;;;;;;26.73;14.88;;;7.80;94.00;;;;;;4897736;29;20033;-93
2021/10/09 01:31:36;;;;;;;24.50;14.45;;;7.80;94.10;;;;;;4901209;29;20029;-91
2021/10/09 01:34:02;;;;;;;26.67;15.70;;;7.80;94.10;;;;;;4900790;29;20036;-92
2021/10/09 01:36:30;;;;;;;30.05;14.98;;;7.80;94.10;;;;;;4900734;29;20563;-92
2021/10/09 01:38:55;;;;;;;29.80;14.88;;;7.80;94.10;;;;;;4900853;29;20071;-92
2021/10/09 01:41:21;;;;;;;28.63;15.40;;;7.70;94.10;;;;;;4901036;29;20056;-92
2021/10/09 01:43:50;;;;;;;22.35;14.32;;;7.70;94.10;;;;;;4900732;29;20020;-92
2021/10/09 01:46:16;;;;;;;22.45;13.35;;;7.70;94.10;;;;;;4900964;29;20406;-92
2021/10/09 01:48:42;;;;;;;23.25;12.70;;;7.80;94.20;;;;;;4900966;29;20112;-92
2021/10/09 01:51:10;;;;;;;22.90;13.98;;;7.70;94.10;;;;;;4900593;29;20063;-92
2021/10/09 01:53:37;;;;;;;24.73;13.45;;;7.80;94.20;;;;;;4900429;29;20036;-93
2021/10/09 01:56:04;;;;;;;21.58;13.10;;;7.70;94.20;;;;;;4900149;29;20123;-91
2021/10/09 01:58:30;;;;;;;21.55;12.98;;;7.70;94.10;;;;;;4899631;29;20028;-93
2021/10/09 02:00:56;;;;;;;24.17;14.18;;;7.70;94.10;;;;;;4899585;29;20043;-92
2021/10/09 02:03:22;;;;;;;27.42;14.57;;;7.70;94.10;;;;;;4899270;29;20049;-92
2021/10/09 02:05:48;;;;;;;25.80;14.48;;;7.60;94.10;;;;;;4899743;29;20456;-92
2021/10/09 02:08:14;;;;;;;23.58;14.52;;;7.60;94.10;;;;;;4899978;29;20036;-92
2021/10/09 02:10:57;;;;;;;24.67;14.52;;;7.50;94.10;;;;;;4908326;29;20024;-92
2021/10/09 02:13:29;;;;;;;27.30;14.80;;;7.50;94.10;;;;;;4905607;29;20116;-92
2021/10/09 02:26:23;;;;;;;28.70;15.27;;;7.30;94.30;;;;;;4900757;29;20491;-92
2021/10/09 02:28:49;;;;;;;25.73;14.60;;;7.30;94.30;;;;;;4899311;29;20115;-93
2021/10/09 02:31:14;;;;;;;26.50;15.20;;;7.30;94.40;;;;;;4898804;29;20040;-93
2021/10/09 02:33:40;;;;;;;27.02;14.35;;;7.30;94.40;;;;;;4899078;29;20028;-92
2021/10/09 02:36:06;;;;;;;26.98;14.65;;;7.30;94.60;;;;;;4962174;23;20040;-68
2021/10/09 02:38:31;;;;;;;29.88;15.27;;;7.30;94.40;;;;;;4906659;29;20067;-68
2021/10/09 02:40:57;;;;;;;26.83;14.73;;;7.40;94.50;;;;;;4905768;29;20120;-67
2021/10/09 02:43:23;;;;;;;27.65;15.57;;;7.30;94.40;;;;;;4882969;29;20033;-67
2021/10/09 02:45:48;;;;;;;23.40;14.52;;;7.30;94.40;;;;;;4878191;29;20021;-67
2021/10/09 02:48:17;;;;;;;26.88;15.48;;;7.30;94.50;;;;;;4878114;29;20480;-68
2021/10/09 02:50:44;;;;;;;27.95;14.85;;;7.30;94.70;;;;;;4878577;29;20025;-68
2021/10/09 02:53:11;;;;;;;26.35;15.20;;;7.30;94.50;;;;;;4874821;29;20029;-67
2021/10/09 02:55:36;;;;;;;28.88;15.73;;;7.40;94.50;;;;;;4860103;29;20072;-68
2021/10/09 02:58:02;;;;;;;26.27;15.52;;;7.30;94.50;;;;;;4875758;29;20060;-67
2021/10/09 03:00:28;;;;;;;27.50;15.45;;;7.30;94.60;;;;;;4877842;29;20024;-67
2021/10/09 03:02:54;;;;;;;30.00;15.68;;;7.40;94.60;;;;;;4877583;29;20037;-68
2021/10/09 03:05:19;;;;;;;30.52;15.23;;;7.30;94.60;;;;;;4876748;29;20027;-67
2021/10/09 03:07:45;;;;;;;26.58;14.60;;;7.30;94.60;;;;;;4877888;29;20084;-68
2021/10/09 03:10:12;;;;;;;27.77;15.15;;;7.30;94.60;;;;;;4877939;29;20028;-68
2021/10/09 03:12:38;;;;;;;26.38;14.32;;;7.30;94.70;;;;;;4876893;29;20141;-67
2021/10/09 03:15:05;;;;;;;32.80;15.68;;;7.30;94.70;;;;;;4878235;29;20031;-68
2021/10/09 03:17:31;;;;;;;33.42;16.58;;;7.30;94.70;;;;;;4877522;29;20454;-68
2021/10/09 03:19:57;;;;;;;33.10;15.38;;;7.30;94.70;;;;;;4878295;29;20021;-68
2021/10/09 03:22:23;;;;;;;32.70;16.15;;;7.30;94.70;;;;;;4877077;29;20112;-68
2021/10/09 03:24:48;;;;;;;30.85;15.75;;;7.30;94.70;;;;;;4877258;29;20029;-69
2021/10/09 03:27:14;;;;;;;26.45;15.48;;;7.20;94.70;;;;;;4877761;29;20486;-67
2021/10/09 03:29:39;;;;;;;26.85;15.77;;;7.20;94.70;;;;;;4877498;29;20029;-68
2021/10/09 03:32:05;;;;;;;27.65;15.10;;;7.20;94.70;;;;;;4877652;29;20028;-68
2021/10/09 03:34:34;;;;;;;28.23;15.80;;;7.20;94.70;;;;;;4876488;29;20474;-68
2021/10/09 03:37:01;;;;;;;28.92;16.02;;;7.20;94.80;;;;;;4877494;29;20060;-67
2021/10/09 03:39:27;;;;;;;28.10;16.00;;;7.20;94.80;;;;;;4877045;29;20148;-68
2021/10/09 03:41:58;;;;;;;32.08;16.52;;;7.20;94.80;;;;;;4876946;29;20056;-68
2021/10/09 03:44:24;;;;;;;30.58;16.55;;;7.20;94.90;;;;;;4875417;29;20100;-68
2021/10/09 03:52:36;;;;;;;28.90;15.38;;;7.10;94.90;;;;;;4876060;29;20128;-67
2021/10/09 03:55:08;;;;;;;34.70;15.48;;;7.20;94.90;;;;;;4859637;29;20037;-68
2021/10/09 03:57:34;;;;;;;28.63;15.25;;;7.10;94.90;;;;;;4876349;29;20029;-68
2021/10/09 04:00:00;;;;;;;30.33;15.93;;;7.10;94.90;;;;;;4877283;29;20029;-68
2021/10/09 04:02:26;;;;;;;26.23;15.93;;;7.10;94.90;;;;;;4876534;29;20025;-68
2021/10/09 04:04:53;;;;;;;30.30;16.13;;;7.10;95.00;;;;;;4875644;29;20132;-68
2021/10/09 04:07:18;;;;;;;32.10;15.93;;;7.10;95.00;;;;;;4876793;29;20105;-68
2021/10/09 04:09:44;;;;;;;25.73;14.82;;;7.10;95.00;;;;;;4876649;29;20037;-68
2021/10/09 04:12:09;;;;;;;29.50;15.95;;;7.10;95.00;;;;;;4876925;29;20037;-68
2021/10/09 04:14:35;;;;;;;22.90;14.32;;;7.10;95.00;;;;;;4875016;29;20128;-68
2021/10/09 04:17:01;;;;;;;27.95;14.43;;;7.10;95.00;;;;;;4876843;29;20056;-67
2021/10/09 04:19:26;;;;;;;27.48;15.02;;;7.20;95.00;;;;;;4876495;29;20052;-68
2021/10/09 04:21:52;;;;;;;18.13;12.98;;;7.20;95.00;;;;;;4876802;29;20021;-67
2021/10/09 04:24:19;;;;;;;27.80;14.52;;;7.20;95.00;;;;;;4875864;29;20075;-68
2021/10/09 04:26:45;;;;;;;23.42;13.80;;;7.10;95.00;;;;;;4875751;29;20024;-68
2021/10/09 04:29:11;;;;;;;26.60;13.88;;;7.10;95.00;;;;;;4876508;29;20524;-68
2021/10/09 04:31:37;;;;;;;19.95;12.93;;;7.10;95.00;;;;;;4876345;29;20041;-68
2021/10/09 04:34:02;;;;;;;21.40;13.45;;;7.10;95.00;;;;;;4876198;29;20041;-68
2021/10/09 04:36:28;;;;;;;22.23;12.68;;;7.10;95.00;;;;;;4876431;29;20047;-68
2021/10/09 04:38:54;;;;;;;20.88;12.50;;;7.10;95.00;;;;;;4875319;29;20064;-67
2021/10/09 04:41:19;;;;;;;25.48;13.75;;;7.10;95.00;;;;;;4876422;29;20037;-68
2021/10/09 04:43:45;;;;;;;23.77;13.65;;;7.10;95.00;;;;;;4876013;29;20032;-69
2021/10/09 04:46:10;;;;;;;21.20;13.15;;;7.10;95.00;;;;;;4876500;29;20057;-68
2021/10/09 04:48:36;;;;;;;25.35;13.30;;;7.00;94.90;;;;;;4874923;29;20104;-68
2021/10/09 04:51:02;;;;;;;24.35;12.88;;;7.00;94.90;;;;;;4876862;29;20044;-68
2021/10/09 04:53:28;;;;;;;24.33;12.93;;;7.00;94.90;;;;;;4869060;29;20029;-68
2021/10/09 04:55:54;;;;;;;21.63;12.73;;;7.00;94.90;;;;;;4874244;29;20037;-67
2021/10/09 04:58:20;;;;;;;23.38;13.05;;;7.00;94.90;;;;;;4875682;29;20363;-68
2021/10/09 05:00:45;;;;;;;26.35;12.85;;;7.00;94.90;;;;;;4876094;29;20478;-68
2021/10/09 05:03:11;;;;;;;23.60;13.82;;;6.90;94.90;;;;;;4874064;29;20074;-69
2021/10/09 05:05:36;;;;;;;21.52;13.65;;;6.90;94.90;;;;;;4871188;29;20032;-68
2021/10/09 05:08:02;;;;;;;25.08;13.63;;;6.90;94.90;;;;;;4878214;29;20045;-68
2021/10/09 05:10:28;;;;;;;25.63;14.27;;;6.90;95.10;;;;;;4879598;29;20131;-68
2021/10/09 05:12:55;;;;;;;26.98;14.55;;;6.80;94.90;;;;;;4878663;29;20092;-68
2021/10/09 05:15:20;;;;;;;24.42;14.45;;;6.80;94.90;;;;;;4879764;29;20033;-68
2021/10/09 05:17:46;;;;;;;28.67;14.95;;;6.80;94.90;;;;;;4879579;29;20183;-68
2021/10/09 05:20:12;;;;;;;26.88;14.40;;;6.80;94.90;;;;;;4880027;29;20446;-67
2021/10/09 05:22:37;;;;;;;25.75;14.13;;;6.80;95.10;;;;;;4876542;29;20064;-68
2021/10/09 05:25:05;;;;;;;28.70;15.10;;;6.80;95.00;;;;;;4875379;29;20045;-68
2021/10/09 05:27:31;;;;;;;28.95;14.75;;;6.80;95.00;;;;;;4876600;29;20447;-67
2021/10/09 05:30:03;;;;;;;26.40;14.70;;;6.80;95.00;;;;;;4879739;29;20033;-68
2021/10/09 05:32:31;;;;;;;31.38;14.60;;;6.80;95.00;;;;;;4877838;29;20044;-68
2021/10/09 05:34:57;;;;;;;27.27;14.77;;;6.70;95.00;;;;;;4878545;29;20029;-68
2021/10/09 05:37:22;;;;;;;27.38;15.20;;;6.70;95.00;;;;;;4877966;29;20036;-68
2021/10/09 05:39:48;;;;;;;24.42;14.75;;;6.70;95.00;;;;;;4877915;29;20040;-68
2021/10/09 05:42:14;;;;;;;27.45;14.77;;;6.70;95.00;;;;;;4877769;29;20029;-68
2021/10/09 05:44:39;;;;;;;25.60;14.13;;;6.70;95.00;;;;;;4877222;29;20037;-67
2021/10/09 05:47:05;;;;;;;29.13;15.10;;;6.70;95.00;;;;;;4877867;29;20089;-68
2021/10/09 05:49:31;;;;;;;27.55;15.15;;;6.70;95.00;;;;;;4878409;29;20108;-68
2021/10/09 05:52:21;;;;;;;29.27;15.30;;;6.70;95.00;;;;;;4877528;29;20032;-67
2021/10/09 05:54:55;;;;;;;28.38;15.93;;;6.70;95.00;;;;;;4876781;29;20406;-68
2021/10/09 05:57:34;;;;;;;26.27;15.00;;;6.70;95.00;;;;;;4877301;29;20036;-67
2021/10/09 06:00:14;;;;;;;27.52;15.55;;;6.70;95.00;;;;;;4878264;29;20025;-68
2021/10/09 06:47:07;;;;;;;29.40;15.88;;;7.50;95.30;;;;;;4878334;29;20476;-68
2021/10/09 07:00:05;;;;;;;31.20;14.98;;;8.70;95.00;;;;;;4865350;29;20519;-71
2021/10/09 07:02:37;;;;;;;31.60;15.15;;;9.30;94.40;;;;;;4860454;29;20029;-72
2021/10/09 07:05:04;;;;;;;24.02;13.23;;;9.80;94.00;;;;;;4866003;29;20033;-69
2021/10/09 07:07:33;;;;;;;21.58;12.55;;;10.20;93.70;;;;;;4876350;29;20382;-68
2021/10/09 07:09:59;;;;;;;22.90;12.18;;;10.20;93.70;;;;;;4869802;29;20427;-68
2021/10/09 07:12:25;;;;;;;24.77;13.15;;;10.40;93.70;;;;;;4877872;29;20040;-68
2021/10/09 07:14:50;;;;;;;23.65;12.77;;;10.80;93.30;;;;;;4877031;29;20029;-67
2021/10/09 07:17:16;;;;;;;21.58;12.23;;;11.30;92.90;;;;;;4877749;29;20727;-68
2021/10/09 07:19:41;;;;;;;22.85;12.50;;;11.70;92.60;;;;;;4877890;29;20105;-68
2021/10/09 07:22:07;;;;;;;23.83;12.60;;;12.00;92.20;;;;;;4877086;29;20025;-67
2021/10/09 07:24:33;;;;;;;21.30;12.02;;;12.20;92.00;;;;;;4875907;29;20350;-68
2021/10/09 07:26:58;;;;;;;22.23;11.77;;;12.20;92.00;;;;;;4876665;29;20029;-68
2021/10/09 07:29:24;;;;;;;18.80;12.68;;;12.50;91.80;;;;;;4873023;29;20029;-67
2021/10/09 07:31:50;;;;;;;21.85;12.68;;;12.60;91.50;;;;;;4877733;29;20040;-68
2021/10/09 07:34:15;;;;;;;18.38;11.98;;;12.70;91.40;;;;;;4875346;29;20040;-68
2021/10/09 07:36:41;;;;;;;19.20;11.55;;;13.00;91.30;;;;;;4864364;29;20051;-68
2021/10/09 07:39:06;;;;;;;17.08;11.70;;;13.20;91.10;;;;;;4875425;29;20029;-67
2021/10/09 07:41:32;;;;;;;21.00;11.88;;;13.20;91.10;;;;;;4877775;29;20061;-67
2021/10/09 07:43:58;;;;;;;20.40;11.85;;;13.30;91.30;;;;;;4871859;29;20025;-69
2021/10/09 07:46:23;;;;;;;23.23;11.77;;;13.50;90.90;;;;;;4864251;29;20499;-68
2021/10/09 07:48:49;;;;;;;20.27;11.88;;;13.70;90.80;;;;;;4873616;29;20427;-68
2021/10/09 07:51:15;;;;;;;22.65;11.90;;;13.70;90.70;;;;;;4868488;29;20663;-68
2021/10/09 07:53:40;;;;;;;18.92;11.93;;;13.70;90.70;;;;;;4863443;29;20037;-67
2021/10/09 07:56:06;;;;;;;24.50;13.05;;;13.80;90.80;;;;;;4870806;29;20599;-67
2021/10/09 07:58:31;;;;;;;18.10;11.98;;;13.70;91.00;;;;;;4868175;29;20076;-67
2021/10/09 08:00:57;;;;;;;20.48;12.40;;;13.70;91.30;;;;;;4869635;29;20784;-68
2021/10/09 08:03:24;;;;;;;24.85;13.38;;;13.70;91.30;;;;;;4874245;29;20154;-67
2021/10/09 08:05:52;;;;;;;18.73;11.93;;;13.60;91.30;;;;;;4870199;29;20511;-68
2021/10/09 08:08:19;;;;;;;17.85;11.68;;;13.60;91.10;;;;;;4875011;29;20036;-68
2021/10/09 08:10:46;;;;;;;19.67;12.73;;;13.50;90.90;;;;;;4873990;29;20040;-68
2021/10/09 08:13:12;;;;;;;18.52;12.50;;;13.50;91.00;;;;;;4864811;29;20508;-69
2021/10/09 08:15:38;;;;;;;19.80;12.25;;;13.40;91.10;;;;;;4866320;29;20029;-69
2021/10/09 08:18:04;;;;;;;20.00;12.40;;;13.40;91.10;;;;;;4874015;29;20044;-69
2021/10/09 08:20:29;;;;;;;19.35;13.73;;;13.30;91.10;;;;;;4868982;29;20025;-68
2021/10/09 08:23:05;;;;;;;23.77;13.30;;;13.40;91.30;;;;;;4874365;29;20062;-68
2021/10/09 08:26:01;;;;;;;21.67;12.70;;;13.40;91.10;;;;;;4872648;29;20021;-68
2021/10/09 08:38:54;;;;;;;20.25;12.45;;;13.50;90.60;;;;;;4903270;29;20523;-72
2021/10/09 08:41:20;;;;;;;24.75;13.27;;;13.60;90.50;;;;;;4907553;29;20407;-73
2021/10/09 08:43:48;;;;;;;22.85;13.07;;;13.60;90.30;;;;;;4894174;29;20033;-73
2021/10/09 08:46:15;;;;;;;23.90;13.23;;;13.60;90.10;;;;;;4888950;29;20485;-73
2021/10/09 08:48:42;;;;;;;24.38;13.65;;;13.50;90.00;;;;;;4890142;29;20033;-74
2021/10/09 08:51:08;;;;;;;20.60;12.75;;;13.50;89.90;;;;;;4889044;29;20501;-72
2021/10/09 08:53:37;;;;;;;29.60;13.60;;;13.50;89.70;;;;;;4884258;29;20041;-72
2021/10/09 08:56:03;;;;;;;22.15;13.20;;;13.50;89.80;;;;;;4891788;29;20523;-72
2021/10/09 08:58:31;;;;;;;21.90;14.20;;;13.50;89.70;;;;;;4885491;29;20073;-72
2021/10/09 09:01:03;;;;;;;21.50;13.02;;;13.50;89.30;;;;;;4886167;29;20464;-73
2021/10/09 09:04:14;;;;;;;23.15;13.25;;;13.50;89.40;;;;;;4881367;29;20044;-72
2021/10/09 09:39:08;;;;;;;22.58;13.50;;;14.20;89.50;;;;;;4887046;29;20456;-73
2021/10/09 09:41:50;;;;;;;23.02;12.95;;;14.20;89.20;;;;;;4888152;29;20025;-73
2021/10/09 09:44:18;;;;;;;22.55;13.65;;;14.30;88.70;;;;;;4882515;29;20036;-74
2021/10/09 09:47:05;;;;;;;21.83;13.95;;;14.40;88.60;;;;;;4893773;29;20032;-74
2021/10/09 09:49:32;;;;;;;19.35;13.18;;;14.40;88.10;;;;;;4885857;29;20063;-74
2021/10/09 09:51:58;;;;;;;21.73;12.93;;;14.40;88.50;;;;;;4894218;29;20442;-74
2021/10/09 09:54:27;;;;;;;19.33;12.63;;;14.40;88.10;;;;;;4887821;29;20043;-74
2021/10/09 09:56:58;;;;;;;21.88;13.38;;;14.50;88.10;;;;;;4887399;29;20079;-74
2021/10/09 09:59:31;;;;;;;22.75;13.23;;;14.40;87.90;;;;;;4891478;29;20031;-74
2021/10/09 10:02:04;;;;;;;20.17;12.48;;;14.50;87.70;;;;;;4886308;29;20032;-74
2021/10/09 10:04:35;;;;;;;24.52;13.50;;;14.50;87.40;;;;;;4881129;29;20541;-73
2021/10/09 10:07:02;;;;;;;23.70;13.45;;;14.30;87.40;;;;;;4890652;29;20032;-73
2021/10/09 10:09:29;;;;;;;21.50;13.57;;;14.30;88.00;;;;;;4895077;29;20055;-72
2021/10/09 10:12:03;;;;;;;23.52;14.02;;;14.30;87.90;;;;;;4877882;29;20121;-73
2021/10/09 10:14:31;;;;;;;25.70;13.85;;;14.40;88.00;;;;;;4882641;29;20116;-73
2021/10/09 10:16:58;;;;;;;22.30;13.40;;;14.50;87.80;;;;;;4884642;29;20075;-72
2021/10/09 10:19:51;;;;;;;20.80;12.77;;;14.50;87.80;;;;;;4895427;29;20055;-72
2021/10/09 10:22:38;;;;;;;24.15;13.25;;;14.60;87.70;;;;;;4889413;29;20081;-73
2021/10/09 10:25:26;;;;;;;19.73;13.35;;;14.60;87.40;;;;;;4885247;29;20037;-72
2021/10/09 10:28:04;;;;;;;20.02;11.95;;;14.60;87.30;;;;;;4886925;29;20025;-73
2021/10/09 10:30:32;;;;;;;22.50;12.52;;;14.60;87.50;;;;;;4885495;29;20024;-74
2021/10/09 10:32:58;;;;;;;20.17;12.00;;;14.70;87.50;;;;;;4887397;29;20135;-73
2021/10/09 10:35:30;;;;;;;22.55;12.25;;;14.70;87.40;;;;;;4881023;29;20118;-74
2021/10/09 10:38:10;;;;;;;24.17;13.63;;;14.70;87.20;;;;;;4885521;29;20549;-72
2021/10/09 10:41:00;;;;;;;20.98;12.85;;;14.70;86.60;;;;;;4887914;29;20052;-73
2021/10/09 10:43:41;;;;;;;20.02;11.85;;;14.60;86.40;;;;;;4893587;29;20028;-72
2021/10/09 10:46:28;;;;;;;20.90;11.73;;;14.60;86.90;;;;;;4894995;29;20028;-73
2021/10/09 10:54:11;;;;;;;18.27;11.80;;;14.60;86.70;;;;;;4894469;29;20400;-71
2021/10/09 11:02:29;;;;;;;19.85;11.50;;;14.70;86.20;;;;;;4887583;29;20041;-70
2021/10/09 11:05:00;;;;;;;19.92;11.45;;;14.70;86.10;;;;;;4901574;29;20039;-71
2021/10/09 11:07:31;;;;;;;21.08;12.88;;;14.80;86.00;;;;;;4910154;29;20042;-70
2021/10/09 11:10:20;;;;;;;20.30;11.13;;;14.80;86.10;;;;;;4904379;29;20059;-71
2021/10/09 11:12:48;;;;;;;17.63;10.63;;;14.90;85.60;;;;;;4889563;29;20078;-71
2021/10/09 11:15:25;;;;;;;16.90;10.95;;;14.90;85.20;;;;;;4899760;29;20041;-71
2021/10/09 11:18:01;;;;;;;19.42;10.98;;;14.90;85.00;;;;;;4906514;29;20057;-71
2021/10/09 11:20:33;;;;;;;20.13;10.60;;;15.00;85.30;;;;;;4900446;29;20064;-71
2021/10/09 11:23:03;;;;;;;21.67;11.85;;;15.10;85.30;;;;;;4908398;29;20385;-71
2021/10/09 11:25:30;;;;;;;18.80;10.75;;;15.20;85.30;;;;;;4895812;29;20021;-71
2021/10/09 11:27:58;;;;;;;16.65;10.10;;;15.40;85.30;;;;;;4907846;29;20037;-71
2021/10/09 11:30:24;;;;;;;17.52;10.75;;;15.50;84.90;;;;;;4909707;29;20036;-70
2021/10/09 11:32:53;;;;;;;16.95;10.32;;;15.60;84.60;;;;;;4903754;29;20107;-70
2021/10/09 11:35:32;;;;;;;12.55;9.50;;;15.70;84.50;;;;;;4898300;29;20038;-71
2021/10/09 11:37:58;;;;;;;18.88;10.00;;;15.80;84.30;;;;;;4901701;29;20032;-70
2021/10/09 11:40:32;;;;;;;17.73;9.73;;;15.90;83.90;;;;;;4908205;29;20040;-70
2021/10/09 11:43:27;;;;;;;16.75;9.68;;;16.00;83.50;;;;;;4905183;29;20035;-69
2021/10/09 11:54:19;;;;;;;15.48;8.90;;;16.40;82.70;;;;;;4904571;29;20055;-70
2021/10/09 11:56:46;;;;;;;13.57;7.93;;;16.50;82.10;;;;;;4901458;29;20552;-70
2021/10/09 11:59:13;;;;;;;14.90;9.07;;;16.60;82.70;;;;;;4899048;29;20036;-70
2021/10/09 12:01:43;;;;;;;14.82;9.60;;;16.60;82.00;;;;;;4902903;29;20032;-69
2021/10/09 12:04:26;;;;;;;12.98;7.65;;;16.70;81.90;;;;;;4894696;29;20017;-69
2021/10/09 12:07:10;;;;;;;13.05;8.50;;;16.90;81.60;;;;;;4896779;29;20023;-70
2021/10/09 12:09:38;;;;;;;15.13;8.90;;;17.00;81.10;;;;;;4893904;29;20031;-70
2021/10/09 12:12:10;;;;;;;18.40;9.70;;;17.10;81.20;;;;;;4890478;29;20040;-70
2021/10/09 12:14:36;;;;;;;16.00;9.57;;;17.10;80.70;;;;;;4903107;29;20025;-71
2021/10/09 12:17:01;;;;;;;16.42;8.85;;;17.20;80.70;;;;;;4897905;29;20036;-70
2021/10/09 12:19:29;;;;;;;15.10;9.48;;;17.20;80.50;;;;;;4901330;29;20036;-70
2021/10/09 12:22:07;;;;;;;14.40;9.40;;;17.30;81.10;;;;;;4898360;29;20107;-69
2021/10/09 12:24:46;;;;;;;11.27;8.10;;;17.50;80.40;;;;;;4897507;29;20442;-70
2021/10/09 12:27:16;;;;;;;13.48;8.48;;;17.50;80.20;;;;;;4901318;29;20029;-70
2021/10/09 12:30:15;;;;;;;14.88;9.40;;;17.50;79.80;;;;;;4893718;29;20577;-71
2021/10/09 12:32:42;;;;;;;11.35;8.07;;;17.50;79.60;;;;;;4849760;29;20091;-71
2021/10/09 12:35:24;;;;;;;14.40;8.30;;;17.70;80.30;;;;;;4902988;29;20382;-72
2021/10/09 12:37:58;;;;;;;12.13;7.40;;;17.90;80.00;;;;;;4896615;29;20426;-72
2021/10/09 12:40:40;;;;;;;16.20;8.57;;;18.00;79.00;;;;;;4903923;29;20044;-73
2021/10/09 12:43:10;;;;;;;14.13;8.23;;;18.10;78.40;;;;;;4901522;29;20033;-71
2021/10/09 12:45:37;;;;;;;13.70;7.85;;;18.10;78.80;;;;;;4904987;29;20119;-70
2021/10/09 12:48:03;;;;;;;11.23;6.75;;;18.20;78.70;;;;;;4905687;29;20043;-70
2021/10/09 12:50:31;;;;;;;11.30;6.60;;;18.30;78.10;;;;;;4896613;29;20028;-70
2021/10/09 12:52:57;;;;;;;10.15;6.53;;;18.40;77.10;;;;;;4889662;29;20108;-70
2021/10/09 12:55:26;;;;;;;8.55;6.43;;;18.30;76.20;;;;;;4900309;29;20048;-70
2021/10/09 12:57:53;;;;;;;11.18;6.25;;;18.30;75.90;;;;;;4898486;29;20038;-71
2021/10/09 13:00:20;;;;;;;11.07;6.18;;;18.30;75.90;;;;;;4907060;29;20024;-71
2021/10/09 13:02:46;;;;;;;16.60;7.03;;;18.30;76.20;;;;;;4893160;29;20691;-71
2021/10/09 13:05:13;;;;;;;11.90;6.60;;;18.30;75.90;;;;;;4903324;29;20043;-72
2021/10/09 13:07:38;;;;;;;9.57;5.97;;;18.30;74.80;;;;;;4897630;29;20047;-71
2021/10/09 13:10:05;;;;;;;9.40;6.05;;;18.20;74.80;;;;;;4884396;29;20030;-71
2021/10/09 13:12:31;;;;;;;12.63;6.47;;;18.20;75.00;;;;;;4890088;29;20489;-71
2021/10/09 13:14:57;;;;;;;7.97;5.68;;;18.30;75.20;;;;;;4902005;29;20155;-71
2021/10/09 13:17:23;;;;;;;11.38;6.10;;;18.40;75.00;;;;;;4893971;29;20032;-71
2021/10/09 13:19:48;;;;;;;11.27;5.97;;;18.40;74.20;;;;;;4897707;29;20047;-71
2021/10/09 13:22:14;;;;;;;11.98;5.78;;;18.40;74.30;;;;;;4895029;29;20153;-71
2021/10/09 13:24:40;;;;;;;8.45;5.30;;;18.50;74.30;;;;;;4902208;29;20362;-71
2021/10/09 13:27:05;;;;;;;11.23;5.93;;;18.50;73.70;;;;;;4900432;29;20035;-72
2021/10/09 13:29:31;;;;;;;11.75;5.85;;;18.50;73.30;;;;;;4907710;29;20036;-71
2021/10/09 13:31:57;;;;;;;11.13;6.28;;;18.50;73.00;;;;;;4899367;29;20549;-71
2021/10/09 13:34:24;;;;;;;12.27;5.63;;;18.50;73.00;;;;;;4896447;29;20037;-71
2021/10/09 13:36:50;;;;;;;9.60;6.05;;;18.50;72.70;;;;;;4901368;29;20512;-71
2021/10/09 13:39:15;;;;;;;10.63;5.60;;;18.50;72.40;;;;;;4902494;29;20048;-71
2021/10/09 13:41:41;;;;;;;9.00;5.53;;;18.50;72.60;;;;;;4900512;29;20374;-71
2021/10/09 13:44:07;;;;;;;9.73;5.35;;;18.50;72.80;;;;;;4892369;29;20100;-71
2021/10/09 13:46:32;;;;;;;9.45;5.68;;;18.60;72.80;;;;;;4898111;29;20054;-71
2021/10/09 13:48:59;;;;;;;10.75;5.63;;;18.60;71.80;;;;;;4894320;29;20044;-71
2021/10/09 13:51:25;;;;;;;10.55;5.80;;;18.70;72.10;;;;;;4900443;29;20088;-72
2021/10/09 13:53:51;;;;;;;8.07;5.65;;;18.60;71.20;;;;;;4892714;29;20048;-72
2021/10/09 13:56:17;;;;;;;9.32;6.03;;;18.60;70.90;;;;;;4886703;29;20144;-72
2021/10/09 13:58:42;;;;;;;12.93;5.68;;;18.60;70.90;;;;;;4902015;29;20047;-72
2021/10/09 14:01:08;;;;;;;10.88;6.43;;;18.50;70.90;;;;;;4901679;29;20033;-72
2021/10/09 14:03:35;;;;;;;10.35;6.47;;;18.50;71.10;;;;;;4889585;29;20036;-71
2021/10/09 14:06:02;;;;;;;12.48;6.80;;;18.40;70.60;;;;;;4897633;29;20028;-71
2021/10/09 14:08:27;;;;;;;9.40;5.78;;;18.20;70.50;;;;;;4886394;29;20047;-71
2021/10/09 14:10:54;;;;;;;10.93;6.07;;;18.00;70.70;;;;;;4885003;29;20048;-70
2021/10/09 14:13:21;;;;;;;11.40;5.80;;;17.90;70.60;;;;;;4888607;29;20037;-71
2021/10/09 14:15:47;;;;;;;12.70;6.25;;;17.80;70.80;;;;;;4880162;29;20061;-73
2021/10/09 14:18:16;;;;;;;13.07;6.13;;;17.70;70.80;;;;;;4884977;29;20553;-71
2021/10/09 14:20:48;;;;;;;10.77;5.35;;;17.60;70.80;;;;;;4881444;29;20084;-71
2021/10/09 14:23:14;;;;;;;;;;;17.50;70.90;;;;;;4889844;29;20028;-70
2021/10/09 14:25:40;;;;;;;10.82;5.10;;;17.40;71.30;;;;;;4888503;29;19923;-70
2021/10/09 14:28:06;;;;;;;7.20;5.13;;;17.30;71.50;;;;;;4895204;29;20032;-70
2021/10/09 14:30:32;;;;;;;7.93;5.20;;;17.10;71.30;;;;;;4890519;29;20121;-70
2021/10/09 14:32:58;;;;;;;11.90;6.03;;;17.00;71.20;;;;;;4884916;29;20683;-70
2021/10/09 14:35:24;;;;;;;11.35;4.60;;;16.90;71.80;;;;;;4882035;29;20045;-70
2021/10/09 14:37:50;;;;;;;7.20;4.10;;;16.80;71.30;;;;;;4947849;23;20340;-67
2021/10/09 14:40:16;;;;;;;6.43;4.63;;;16.70;71.30;;;;;;4891811;29;20032;-67
2021/10/09 14:42:45;;;;;;;6.63;4.63;;;16.70;71.30;;;;;;4889143;29;20025;-67
2021/10/09 14:45:12;;;;;;;8.35;5.13;;;16.60;71.10;;;;;;4890452;29;20081;-66
2021/10/09 14:47:42;;;;;;;7.70;5.03;;;16.50;71.20;;;;;;4881140;29;20478;-66
2021/10/09 15:20:05;;;;;;;7.03;4.10;;;16.00;72.40;;;;;;4880548;29;20089;-67
2021/10/09 15:22:33;;;;;;;7.22;4.38;;;15.90;72.20;;;;;;4892886;29;20048;-67
2021/10/09 15:25:00;;;;;;;5.03;3.60;;;15.80;72.20;;;;;;4888092;29;20406;-67